Time;durP1;ratioP1;P1;durP2;ratioP2;P2;SDS_P1;SDS_P2;PMS_P1;PMS_P2;Temp;Humidity;BMP_temperature;BMP_pressure;BME280_temperature;BME280_humidity;BME280_pressure;Samples;Min_cycle;Max_cycle;Signal;HPM_P1;HPM_P2
2021/12/26 00:00:25;;;;;;;60.20;12.83;;;;;;;3.92;100.00;152371.00;5014904;28;20546;-76
2021/12/26 00:03:01;;;;;;;35.83;12.23;;;;;;;3.93;100.00;152372.28;5033549;28;20467;-76
2021/12/26 00:05:36;;;;;;;31.87;11.40;;;;;;;3.96;100.00;152380.03;5048750;28;20474;-76
2021/12/26 00:08:12;;;;;;;70.97;13.87;;;;;;;3.97;100.00;152383.88;5018631;28;20530;-76
2021/12/26 00:10:49;;;;;;;36.53;12.10;;;;;;;4.00;100.00;152391.59;5027826;28;20508;-76
2021/12/26 00:13:26;;;;;;;59.57;12.23;;;;;;;4.05;100.00;152404.47;5033473;28;20455;-76
2021/12/26 00:16:02;;;;;;;17.37;10.40;;;;;;;4.01;100.00;152394.19;5066310;28;20466;-76
2021/12/26 00:18:42;;;;;;;50.23;13.90;;;;;;;4.01;100.00;152392.91;5018299;28;20451;-76
2021/12/26 00:21:19;;;;;;;60.83;13.53;;;;;;;4.02;100.00;152395.50;5033897;28;20925;-76
2021/12/26 00:23:57;;;;;;;37.43;11.50;;;;;;;3.97;100.00;152382.63;5033318;28;20439;-76
2021/12/26 00:26:33;;;;;;;88.23;15.17;;;;;;;4.00;100.00;152390.31;5017818;28;20482;-76
2021/12/26 00:29:10;;;;;;;60.60;13.10;;;;;;;3.99;100.00;152389.06;5047060;28;20443;-76
2021/12/26 00:31:45;;;;;;;41.30;13.17;;;;;;;4.01;100.00;152394.19;5024542;28;20520;-76
2021/12/26 00:34:21;;;;;;;59.13;16.30;;;;;;;4.00;100.00;152390.31;5033331;28;20455;-76
2021/12/26 00:36:56;;;;;;;65.27;15.23;;;;;;;3.96;100.00;152380.03;5017638;28;20493;-76
2021/12/26 00:39:32;;;;;;;94.87;16.10;;;;;;;3.95;100.00;152377.44;5033408;28;20435;-76
2021/12/26 00:42:08;;;;;;;98.43;16.10;;;;;;;3.94;100.00;152374.88;5033343;28;20459;-76
2021/12/26 00:44:44;;;;;;;124.87;19.50;;;;;;;3.99;100.00;152389.06;5017350;28;20533;-76
2021/12/26 00:47:20;;;;;;;152.53;20.20;;;;;;;3.93;100.00;152372.28;5032921;28;20454;-76
2021/12/26 00:49:56;;;;;;;122.30;17.47;;;;;;;3.85;100.00;152351.69;5051353;28;20912;-76
2021/12/26 00:52:31;;;;;;;105.00;18.37;;;;;;;3.89;100.00;152362.00;5033088;28;20490;-75
2021/12/26 00:55:11;;;;;;;125.73;16.87;;;;;;;3.90;100.00;152364.56;5032460;28;20478;-76
2021/12/26 00:57:47;;;;;;;133.93;17.50;;;;;;;3.88;100.00;152360.72;5016780;28;20861;-76
2021/12/26 01:00:28;;;;;;;164.47;21.80;;;;;;;3.88;100.00;152359.44;5002865;28;20814;-76
2021/12/26 01:03:05;;;;;;;145.13;21.00;;;;;;;3.91;100.00;152368.47;5045963;28;20437;-76
2021/12/26 01:05:45;;;;;;;128.90;19.40;;;;;;;3.91;100.00;152367.16;5024933;28;20435;-76
2021/12/26 01:08:25;;;;;;;100.83;19.93;;;;;;;3.82;100.00;152343.97;5012977;28;20459;-76
2021/12/26 01:11:06;;;;;;;97.47;17.60;;;;;;;3.79;100.00;152337.53;5006081;28;20875;-75
2021/12/26 01:13:49;;;;;;;130.70;19.97;;;;;;;3.90;100.00;152364.56;5065334;28;20447;-76
2021/12/26 01:16:47;;;;;;;176.60;21.73;;;;;;;3.80;100.00;152340.13;5036961;28;20502;-76
2021/12/26 01:19:31;;;;;;;83.70;16.00;;;;;;;3.74;100.00;152323.34;5012710;28;20419;-76
2021/12/26 01:22:07;;;;;;;113.47;17.27;;;;;;;3.75;100.00;152327.25;4997862;28;20452;-76
2021/12/26 01:24:42;;;;;;;103.63;19.20;;;;;;;3.82;100.00;152345.25;5043288;28;20416;-76
2021/12/26 01:27:18;;;;;;;80.90;15.17;;;;;;;3.79;100.00;152336.22;5031053;28;20479;-76
2021/12/26 01:29:55;;;;;;;113.87;17.70;;;;;;;3.77;100.00;152332.38;5035710;28;20446;-76
2021/12/26 01:32:32;;;;;;;86.77;15.77;;;;;;;3.77;100.00;152331.09;5037063;28;20485;-76
2021/12/26 01:35:10;;;;;;;85.80;16.37;;;;;;;3.76;100.00;152328.53;5047319;28;20549;-76
2021/12/26 01:38:06;;;;;;;79.97;16.00;;;;;;;3.80;100.00;152338.81;5034124;28;20419;-76
2021/12/26 01:40:57;;;;;;;87.90;14.60;;;;;;;3.83;100.00;152346.56;5032335;28;20451;-76
2021/12/26 01:43:52;;;;;;;62.17;14.83;;;;;;;3.76;100.00;152328.53;5034236;28;20453;-76
2021/12/26 01:46:40;;;;;;;98.07;15.87;;;;;;;3.78;100.00;152333.69;5031488;28;20545;-76
2021/12/26 01:49:18;;;;;;;77.27;12.50;;;;;;;3.77;100.00;152332.38;5016721;28;20801;-76
2021/12/26 01:51:57;;;;;;;106.13;15.60;;;;;;;3.70;100.00;152314.38;5015830;28;20450;-76
2021/12/26 01:54:38;;;;;;;43.67;11.90;;;;;;;3.72;100.00;152319.50;5031779;28;20449;-76
2021/12/26 01:57:16;;;;;;;98.83;15.83;;;;;;;3.79;100.00;152336.22;5036314;28;21027;-76
2021/12/26 01:59:53;;;;;;;71.37;12.40;;;;;;;3.76;100.00;152328.53;5016635;28;20426;-76
2021/12/26 02:02:35;;;;;;;100.17;14.20;;;;;;;3.72;100.00;152318.22;5022674;28;20448;-76
2021/12/26 02:05:12;;;;;;;73.80;12.80;;;;;;;3.75;100.00;152325.94;5028356;28;20439;-76
2021/12/26 02:07:47;;;;;;;63.10;13.90;;;;;;;3.79;100.00;152336.22;5039290;28;20447;-76
2021/12/26 02:10:23;;;;;;;123.60;16.83;;;;;;;3.72;100.00;152318.22;5043463;28;20948;-76
2021/12/26 02:13:00;;;;;;;118.53;16.13;;;;;;;3.76;100.00;152328.53;5016479;28;20533;-76
2021/12/26 02:15:36;;;;;;;94.60;15.00;;;;;;;3.71;100.00;152316.91;5015428;28;20795;-76
2021/12/26 02:18:20;;;;;;;101.80;14.27;;;;;;;3.76;100.00;152328.53;5014794;28;20444;-76
2021/12/26 02:21:11;;;;;;;135.13;15.87;;;;;;;3.72;100.00;152319.50;5031145;28;20463;-76
2021/12/26 02:24:09;;;;;;;59.93;12.17;;;;;;;3.78;100.00;152334.97;5032000;28;20846;-75
2021/12/26 02:29:38;;;;;;;75.97;12.23;;;;;;;3.82;100.00;152343.97;5045431;28;20447;-76
2021/12/26 02:32:15;;;;;;;96.97;13.87;;;;;;;3.78;100.00;152334.97;5031061;28;20853;-76
2021/12/26 02:34:50;;;;;;;53.43;11.20;;;;;;;3.78;100.00;152334.97;5030799;28;20439;-76
2021/12/26 02:37:28;;;;;;;80.37;12.07;;;;;;;3.75;100.00;152325.94;5030757;28;20473;-76
2021/12/26 02:40:05;;;;;;;50.73;12.03;;;;;;;3.71;100.00;152315.69;5015765;28;20879;-76
2021/12/26 02:42:41;;;;;;;36.20;11.00;;;;;;;3.76;100.00;152328.53;5015467;28;20448;-76
2021/12/26 02:45:17;;;;;;;63.07;11.90;;;;;;;3.76;100.00;152328.53;5012562;28;20447;-76
2021/12/26 02:47:53;;;;;;;38.43;10.40;;;;;;;3.79;100.00;152336.22;5038713;28;20734;-76
2021/12/26 02:50:30;;;;;;;46.90;10.60;;;;;;;3.76;100.00;152329.78;5015665;28;20789;-76
2021/12/26 02:53:09;;;;;;;23.83;8.63;;;;;;;3.75;100.00;152327.25;5015488;28;20455;-76
2021/12/26 02:55:45;;;;;;;51.23;10.80;;;;;;;3.84;100.00;152349.16;5015094;28;20460;-77
2021/12/26 02:58:21;;;;;;;62.63;11.07;;;;;;;3.76;100.00;152328.53;5014275;28;20459;-76
2021/12/26 03:01:05;;;;;;;59.20;10.20;;;;;;;3.72;100.00;152319.50;5033303;28;20448;-76
2021/12/26 03:03:41;;;;;;;63.50;11.20;;;;;;;3.74;100.00;152324.66;5031323;28;20452;-76
2021/12/26 03:06:22;;;;;;;39.87;9.70;;;;;;;3.68;100.00;152309.19;5030524;28;20482;-76
2021/12/26 03:09:00;;;;;;;48.60;9.17;;;;;;;3.76;100.00;152328.53;5012143;28;20447;-76
2021/12/26 03:11:38;;;;;;;91.43;10.97;;;;;;;3.71;100.00;152315.69;5046608;28;20451;-76
2021/12/26 03:14:13;;;;;;;49.07;9.83;;;;;;;3.65;100.00;152301.50;5030524;28;20425;-76
2021/12/26 03:16:50;;;;;;;19.27;7.97;;;;;;;3.68;100.00;152309.19;5030218;28;20532;-76
2021/12/26 03:19:25;;;;;;;30.50;8.87;;;;;;;3.72;100.00;152319.50;5063171;28;20455;-76
2021/12/26 03:22:01;;;;;;;37.43;9.30;;;;;;;3.70;100.00;152314.38;5015093;28;20454;-76
2021/12/26 03:24:39;;;;;;;15.80;7.70;;;;;;;3.75;100.00;152327.25;5015325;28;20432;-76
2021/12/26 03:27:15;;;;;;;37.87;8.73;;;;;;;3.75;100.00;152325.94;5063449;28;20454;-76
2021/12/26 03:29:51;;;;;;;36.10;8.60;;;;;;;3.72;100.00;152319.50;5014647;28;20450;-76
2021/12/26 03:32:28;;;;;;;31.20;8.00;;;;;;;3.72;100.00;152319.50;5048626;28;20537;-76
2021/12/26 03:35:04;;;;;;;54.03;9.67;;;;;;;3.79;100.00;152337.53;5048166;28;20435;-76
2021/12/26 03:37:41;;;;;;;37.83;9.77;;;;;;;3.72;100.00;152318.22;5015353;28;20478;-76
2021/12/26 03:40:38;;;;;;;15.43;7.80;;;;;;;3.71;100.00;152316.91;5032134;28;20862;-76
2021/12/26 03:43:15;;;;;;;34.13;8.83;;;;;;;3.74;100.00;152324.66;5019128;28;20451;-76
2021/12/26 03:45:53;;;;;;;31.63;9.73;;;;;;;3.76;100.00;152328.53;5051874;28;20451;-76
2021/12/26 03:48:29;;;;;;;52.50;10.00;;;;;;;3.74;100.00;152323.34;5051796;28;20442;-76
2021/12/26 03:51:06;;;;;;;33.73;9.60;;;;;;;3.75;100.00;152325.94;5018468;28;20450;-76
2021/12/26 03:53:42;;;;;;;13.90;7.10;;;;;;;3.71;100.00;152315.69;5019008;28;20438;-76
2021/12/26 03:56:19;;;;;;;18.03;8.27;;;;;;;3.76;100.00;152328.53;5048769;28;20482;-76
2021/12/26 03:59:11;;;;;;;40.53;10.00;;;;;;;3.73;100.00;152320.81;5018332;28;20462;-76
2021/12/26 04:01:47;;;;;;;51.43;9.40;;;;;;;3.73;100.00;152322.13;5051416;28;20458;-76
2021/12/26 04:04:23;;;;;;;82.20;14.00;;;;;;;3.78;100.00;152334.97;5051754;28;20442;-76
2021/12/26 04:06:59;;;;;;;59.70;12.27;;;;;;;3.68;100.00;152309.19;5018246;28;20438;-76
2021/12/26 04:09:34;;;;;;;81.90;13.77;;;;;;;3.67;100.00;152307.94;5049702;28;20542;-76
2021/12/26 04:12:12;;;;;;;90.80;14.50;;;;;;;3.66;100.00;152305.34;5018382;28;20858;-76
2021/12/26 04:14:48;;;;;;;75.10;13.07;;;;;;;3.69;100.00;152313.09;5082748;28;20443;-76
2021/12/26 04:17:23;;;;;;;53.67;13.67;;;;;;;3.66;100.00;152305.34;5018275;28;20509;-76
2021/12/26 04:19:59;;;;;;;69.00;13.73;;;;;;;3.64;100.00;152300.22;5051427;28;20533;-76
2021/12/26 04:22:35;;;;;;;71.93;13.90;;;;;;;3.65;100.00;152301.50;5018628;28;20454;-76
2021/12/26 04:25:11;;;;;;;108.83;15.70;;;;;;;3.64;100.00;152298.91;5018274;28;20438;-76
2021/12/26 04:27:49;;;;;;;52.23;11.40;;;;;;;3.62;100.00;152293.78;5018292;28;20929;-76
2021/12/26 04:30:25;;;;;;;106.70;16.17;;;;;;;3.61;100.00;152292.47;5018053;28;20533;-76
2021/12/26 04:33:04;;;;;;;86.97;15.10;;;;;;;3.60;100.00;152289.88;5018124;28;20435;-76
2021/12/26 04:35:40;;;;;;;77.57;13.63;;;;;;;3.58;100.00;152284.75;5017704;28;20439;-76
2021/12/26 04:38:15;;;;;;;114.17;15.23;;;;;;;3.62;100.00;152295.06;5033452;28;20864;-76
2021/12/26 04:40:52;;;;;;;90.27;13.97;;;;;;;3.63;100.00;152297.63;5033332;28;20436;-76
2021/12/26 04:43:47;;;;;;;124.37;14.33;;;;;;;3.61;100.00;152292.47;5033181;28;20443;-76
2021/12/26 04:46:43;;;;;;;25.40;11.10;;;;;;;3.62;100.00;152295.06;5033171;28;20474;-76
2021/12/26 04:49:27;;;;;;;60.50;12.43;;;;;;;3.65;100.00;152301.50;5033016;28;20423;-76
2021/12/26 04:52:03;;;;;;;121.63;14.93;;;;;;;3.65;100.00;152302.75;5012201;28;20463;-76
2021/12/26 04:54:42;;;;;;;40.53;10.90;;;;;;;3.62;100.00;152295.06;5031159;28;20447;-76
2021/12/26 04:57:17;;;;;;;45.60;11.27;;;;;;;3.64;100.00;152300.22;5028124;28;20492;-76
2021/12/26 04:59:55;;;;;;;18.37;9.07;;;;;;;3.64;100.00;152300.22;5014040;28;20451;-76
2021/12/26 05:02:35;;;;;;;74.00;15.07;;;;;;;3.66;100.00;152305.34;5046450;28;21026;-76
2021/12/26 05:05:12;;;;;;;62.60;12.23;;;;;;;3.66;100.00;152305.34;5030766;28;20435;-76
2021/12/26 05:07:48;;;;;;;38.50;9.80;;;;;;;3.65;100.00;152302.75;5031885;28;20478;-76
2021/12/26 05:10:25;;;;;;;39.03;10.57;;;;;;;3.65;100.00;152302.75;5059885;28;20455;-76
2021/12/26 05:13:01;;;;;;;84.67;13.23;;;;;;;3.75;100.00;152327.25;5017211;28;20443;-76
2021/12/26 05:15:40;;;;;;;60.53;11.70;;;;;;;3.67;100.00;152306.66;5017210;28;20439;-76
2021/12/26 05:18:16;;;;;;;46.10;12.50;;;;;;;3.67;100.00;152306.66;5017112;28;20981;-76
2021/12/26 05:20:56;;;;;;;93.43;14.47;;;;;;;3.68;100.00;152309.19;5016848;28;20458;-76
2021/12/26 05:23:31;;;;;;;54.47;13.83;;;;;;;3.72;100.00;152318.22;5032703;28;20427;-76
2021/12/26 05:26:07;;;;;;;148.27;18.57;;;;;;;3.76;100.00;152328.53;5032516;28;20534;-76
2021/12/26 05:28:43;;;;;;;141.33;16.93;;;;;;;3.74;100.00;152323.34;5017125;28;20989;-76
2021/12/26 05:31:22;;;;;;;283.70;23.00;;;;;;;3.77;100.00;152332.38;5016984;28;20439;-76
2021/12/26 05:33:59;;;;;;;178.53;18.57;;;;;;;3.67;100.00;152307.94;5032306;28;20436;-76
2021/12/26 05:36:35;;;;;;;171.90;18.27;;;;;;;3.68;100.00;152309.19;5032733;28;20531;-76
2021/12/26 05:39:11;;;;;;;68.93;13.00;;;;;;;3.72;100.00;152318.22;5081415;28;20450;-76
2021/12/26 05:41:46;;;;;;;60.77;11.43;;;;;;;3.75;100.00;152327.25;5016741;28;20452;-76
2021/12/26 05:44:38;;;;;;;215.73;19.50;;;;;;;3.80;100.00;152338.81;5016666;28;20523;-76
2021/12/26 05:47:16;;;;;;;16.40;8.50;;;;;;;3.84;100.00;152350.41;5016591;28;20447;-76
2021/12/26 05:50:04;;;;;;;49.33;10.83;;;;;;;3.88;100.00;152359.44;5006714;28;20437;-76
2021/12/26 05:52:40;;;;;;;95.93;15.30;;;;;;;3.85;100.00;152351.69;5057717;28;20447;-76
2021/12/26 05:55:24;;;;;;;71.63;13.57;;;;;;;3.82;100.00;152343.97;5031890;28;20439;-76
2021/12/26 05:58:01;;;;;;;52.93;11.23;;;;;;;3.85;100.00;152353.00;5031522;28;20482;-77
2021/12/26 06:00:37;;;;;;;115.27;15.60;;;;;;;3.90;100.00;152364.56;5020851;28;20449;-76
2021/12/26 06:03:14;;;;;;;52.63;11.27;;;;;;;3.91;100.00;152367.16;5026664;28;20523;-76
2021/12/26 06:05:50;;;;;;;20.53;9.17;;;;;;;3.93;100.00;152372.28;5043683;28;20455;-76
2021/12/26 06:08:25;;;;;;;12.43;9.60;;;;;;;3.96;100.00;152381.31;5031395;28;20412;-76
2021/12/26 06:11:03;;;;;;;12.47;8.97;;;;;;;4.00;100.00;152390.31;5060908;28;20459;-76
2021/12/26 06:13:38;;;;;;;11.00;8.30;;;;;;;4.02;100.00;152396.78;5015792;28;20775;-76
2021/12/26 06:16:14;;;;;;;12.70;9.10;;;;;;;4.04;100.00;152400.63;5016159;28;20461;-76
2021/12/26 06:18:51;;;;;;;12.57;8.13;;;;;;;4.09;100.00;152414.81;5048526;28;20997;-76
2021/12/26 06:22:06;;;;;;;13.60;9.40;;;;;;;4.05;100.00;152404.47;4987547;28;20533;-76
2021/12/26 06:25:01;;;;;;;16.37;9.90;;;;;;;4.06;100.00;152405.78;4971460;28;20957;-76
2021/12/26 06:27:47;;;;;;;31.30;10.30;;;;;;;4.04;100.00;152401.94;5038498;28;20444;-76
2021/12/26 06:30:43;;;;;;;24.33;10.10;;;;;;;4.02;100.00;152395.50;5031983;28;20517;-76
2021/12/26 06:33:19;;;;;;;12.40;9.00;;;;;;;4.03;100.00;152399.34;5042645;28;20530;-76
2021/12/26 06:36:17;;;;;;;17.70;9.33;;;;;;;4.09;100.00;152413.50;5022380;28;20436;-76
2021/12/26 06:39:11;;;;;;;16.00;9.30;;;;;;;4.16;100.00;152431.53;5062977;28;20428;-76
2021/12/26 06:42:06;;;;;;;15.83;9.43;;;;;;;4.14;100.00;152427.69;5031525;28;20459;-76
2021/12/26 06:45:00;;;;;;;15.90;9.00;;;;;;;4.26;100.00;152458.56;5063903;28;20499;-76
2021/12/26 06:48:06;;;;;;;17.40;7.93;;;;;;;4.26;100.00;152458.56;5048664;28;20518;-76
2021/12/26 06:50:42;;;;;;;14.17;9.10;;;;;;;4.22;100.00;152447.00;5048419;28;20793;-76
2021/12/26 06:53:20;;;;;;;13.90;9.97;;;;;;;4.20;100.00;152441.84;5015569;28;20431;-76
2021/12/26 06:55:55;;;;;;;17.43;10.43;;;;;;;4.21;100.00;152444.41;5030562;28;20439;-76
2021/12/26 06:58:31;;;;;;;16.50;9.30;;;;;;;4.24;100.00;152452.13;5013651;28;20558;-76
2021/12/26 07:01:07;;;;;;;13.63;8.47;;;;;;;4.20;100.00;152441.84;5015259;28;20550;-76
2021/12/26 07:03:44;;;;;;;16.67;8.97;;;;;;;4.26;100.00;152457.31;5023864;28;20449;-76
2021/12/26 07:06:19;;;;;;;17.43;9.80;;;;;;;4.26;100.00;152458.56;5015197;28;20550;-76
2021/12/26 07:08:57;;;;;;;14.87;10.00;;;;;;;4.29;100.00;152465.00;5027907;28;20441;-76
2021/12/26 07:11:33;;;;;;;19.00;9.80;;;;;;;4.20;100.00;152443.16;5029967;28;20509;-76
2021/12/26 07:14:09;;;;;;;13.63;8.70;;;;;;;4.21;100.00;152444.41;5048501;28;20436;-76
2021/12/26 07:16:45;;;;;;;16.00;9.80;;;;;;;4.19;100.00;152439.25;5047257;28;20458;-76
2021/12/26 07:19:20;;;;;;;13.47;8.67;;;;;;;4.19;100.00;152440.56;5019049;28;20798;-76
2021/12/26 07:21:57;;;;;;;11.97;8.57;;;;;;;4.21;100.00;152444.41;5051989;28;20509;-76
2021/12/26 07:24:34;;;;;;;13.27;9.43;;;;;;;4.25;100.00;152454.72;5033617;28;20451;-76
2021/12/26 07:27:10;;;;;;;16.73;8.97;;;;;;;4.27;100.00;152459.88;5052508;28;20478;-76
2021/12/26 07:30:05;;;;;;;17.60;9.67;;;;;;;4.22;100.00;152447.00;5033901;28;20447;-75
2021/12/26 07:32:44;;;;;;;18.27;8.87;;;;;;;4.19;100.00;152439.25;5052404;28;20793;-75
2021/12/26 07:35:19;;;;;;;15.17;10.60;;;;;;;4.18;100.00;152436.72;5049743;28;21006;-75
2021/12/26 07:37:55;;;;;;;14.07;9.47;;;;;;;4.22;100.00;152447.00;5018260;28;20466;-75
2021/12/26 07:40:32;;;;;;;18.10;10.87;;;;;;;4.20;100.00;152443.16;5048668;28;20534;-75
2021/12/26 07:43:15;;;;;;;14.57;10.10;;;;;;;4.22;100.00;152447.00;5030651;28;20440;-75
2021/12/26 07:46:22;;;;;;;15.53;10.13;;;;;;;4.25;100.00;152454.72;5026804;28;20448;-75
2021/12/26 07:48:59;;;;;;;14.77;10.43;;;;;;;4.23;100.00;152449.59;4999216;28;20486;-75
2021/12/26 07:51:54;;;;;;;14.57;9.37;;;;;;;4.32;100.00;152472.75;5062072;28;20447;-75
2021/12/26 07:54:48;;;;;;;15.40;10.67;;;;;;;4.36;100.00;152481.78;5033781;28;20953;-75
2021/12/26 07:57:48;;;;;;;16.17;11.00;;;;;;;4.36;100.00;152481.78;5033323;28;20586;-75
2021/12/26 08:00:42;;;;;;;14.57;10.43;;;;;;;4.36;100.00;152481.78;5033543;28;20796;-75
2021/12/26 08:03:34;;;;;;;18.60;11.37;;;;;;;4.46;100.00;152507.53;5051748;28;20443;-75
2021/12/26 08:06:30;;;;;;;15.07;10.73;;;;;;;4.42;100.00;152498.50;5033581;28;20835;-75
2021/12/26 08:09:06;;;;;;;14.87;10.63;;;;;;;4.44;100.00;152503.69;5017475;28;20530;-75
2021/12/26 08:11:42;;;;;;;17.10;11.90;;;;;;;4.46;100.00;152508.81;5065279;28;20494;-75
2021/12/26 08:14:19;;;;;;;14.77;10.70;;;;;;;4.49;100.00;152516.56;5018180;28;20777;-75
2021/12/26 08:16:54;;;;;;;17.23;10.40;;;;;;;4.51;100.00;152521.69;5079434;28;20468;-75
2021/12/26 08:19:30;;;;;;;15.30;11.20;;;;;;;4.55;100.00;152530.72;5066642;28;20433;-75
2021/12/26 08:22:06;;;;;;;17.77;12.10;;;;;;;4.62;100.00;152548.75;5032896;28;20945;-75
2021/12/26 08:24:41;;;;;;;17.80;12.10;;;;;;;4.54;100.00;152529.44;5065953;28;20450;-75
2021/12/26 08:27:17;;;;;;;15.17;11.00;;;;;;;4.53;100.00;152526.84;5026670;28;20469;-76
2021/12/26 08:29:54;;;;;;;14.67;10.27;;;;;;;4.59;100.00;152542.31;5051372;28;20968;-76
2021/12/26 08:32:32;;;;;;;18.97;9.77;;;;;;;4.57;100.00;152537.19;5022708;28;20448;-75
2021/12/26 08:35:08;;;;;;;14.70;10.80;;;;;;;4.70;100.00;152569.38;5036461;28;20464;-76
2021/12/26 08:37:46;;;;;;;12.97;9.40;;;;;;;4.67;100.00;152562.94;5010115;28;20472;-75
2021/12/26 08:40:22;;;;;;;16.63;12.87;;;;;;;4.69;100.00;152568.06;5048215;28;20435;-76
2021/12/26 08:42:57;;;;;;;14.33;11.90;;;;;;;4.71;100.00;152573.22;5023153;28;20522;-75
2021/12/26 08:45:34;;;;;;;16.17;11.30;;;;;;;4.62;100.00;152550.06;5045476;28;20443;-75
2021/12/26 08:48:10;;;;;;;14.23;10.53;;;;;;;4.70;100.00;152570.66;5045147;28;20443;-75
2021/12/26 08:50:46;;;;;;;14.47;10.50;;;;;;;4.73;100.00;152578.41;5014196;28;20714;-76
2021/12/26 08:53:21;;;;;;;14.00;10.57;;;;;;;4.78;100.00;152590.00;5022056;28;20446;-76
2021/12/26 08:55:59;;;;;;;13.27;9.27;;;;;;;4.74;100.00;152579.66;5033438;28;20932;-76
2021/12/26 08:58:34;;;;;;;17.20;11.80;;;;;;;4.89;100.00;152619.66;5029611;28;20467;-75
2021/12/26 09:01:11;;;;;;;18.97;13.80;;;;;;;4.95;100.00;152633.78;5030396;28;20444;-76
2021/12/26 09:03:47;;;;;;;21.83;14.50;;;;;;;4.88;100.00;152615.75;5015897;28;20454;-76
2021/12/26 09:06:23;;;;;;;16.57;13.07;;;;;;;4.86;100.00;152611.91;5031317;28;20550;-75
2021/12/26 09:08:59;;;;;;;18.10;12.70;;;;;;;4.88;100.00;152615.75;5032301;28;20436;-75
2021/12/26 09:11:35;;;;;;;16.87;10.77;;;;;;;4.98;100.00;152641.53;5031551;28;20811;-76
2021/12/26 09:14:10;;;;;;;13.90;10.57;;;;;;;5.01;100.00;152647.97;5029071;28;20451;-75
2021/12/26 09:16:47;;;;;;;15.27;10.80;;;;;;;5.08;100.00;152666.03;5012733;28;20440;-75
2021/12/26 09:19:23;;;;;;;14.30;9.80;;;;;;;5.07;100.00;152663.44;5017254;28;20782;-76
2021/12/26 09:22:00;;;;;;;13.00;10.00;;;;;;;5.09;100.00;152668.59;5031587;28;20451;-76
2021/12/26 09:24:36;;;;;;;13.70;9.63;;;;;;;5.11;100.00;152673.78;5031556;28;20444;-76
2021/12/26 09:27:12;;;;;;;13.57;10.67;;;;;;;5.09;100.00;152668.59;5016249;28;20459;-76
2021/12/26 09:29:48;;;;;;;15.00;10.00;;;;;;;5.07;100.00;152664.75;5047014;28;20843;-76
2021/12/26 09:32:25;;;;;;;13.97;10.03;;;;;;;5.08;100.00;152666.03;5031947;28;20462;-75
2021/12/26 09:35:01;;;;;;;14.17;10.73;;;;;;;5.17;100.00;152689.22;5016143;28;20485;-75
2021/12/26 09:37:36;;;;;;;14.43;10.17;;;;;;;5.17;100.00;152689.22;5015983;28;20772;-75
2021/12/26 09:40:13;;;;;;;13.03;9.57;;;;;;;5.15;100.00;152685.38;5032771;28;20832;-75
2021/12/26 09:42:49;;;;;;;12.00;9.93;;;;;;;5.17;100.00;152690.50;5064840;28;20451;-76
2021/12/26 09:45:24;;;;;;;11.70;10.50;;;;;;;5.21;100.00;152700.84;5049277;28;20443;-75
2021/12/26 09:48:01;;;;;;;12.13;10.10;;;;;;;5.29;100.00;152721.47;5062269;28;20440;-76
2021/12/26 09:50:37;;;;;;;14.07;9.67;;;;;;;5.30;100.00;152722.72;5031354;28;21177;-76
2021/12/26 09:53:12;;;;;;;12.40;8.60;;;;;;;5.25;100.00;152709.84;5016307;28;20554;-76
2021/12/26 09:55:48;;;;;;;12.60;9.40;;;;;;;5.24;100.00;152707.28;5015777;28;20471;-76
2021/12/26 09:58:24;;;;;;;12.37;9.47;;;;;;;5.29;100.00;152720.19;5018213;28;20460;-75
2021/12/26 10:01:00;;;;;;;13.30;9.43;;;;;;;5.33;100.00;152730.47;5031121;28;20435;-75
2021/12/26 10:03:36;;;;;;;11.50;9.67;;;;;;;5.34;100.00;152734.38;5007917;28;20423;-75
2021/12/26 10:06:25;;;;;;;12.50;10.33;;;;;;;5.39;100.00;152747.25;5028082;28;20551;-76
2021/12/26 10:09:17;;;;;;;13.73;10.47;;;;;;;5.51;100.00;152776.88;5029908;28;20549;-76
2021/12/26 10:11:54;;;;;;;13.80;10.87;;;;;;;5.43;100.00;152757.53;5039784;28;20436;-76
2021/12/26 10:14:32;;;;;;;13.37;11.03;;;;;;;5.43;100.00;152756.25;5013772;28;20448;-76
2021/12/26 10:17:11;;;;;;;13.17;10.40;;;;;;;5.48;100.00;152769.19;5028865;28;20522;-76
2021/12/26 10:19:49;;;;;;;14.30;9.87;;;;;;;5.53;100.00;152783.31;5015632;28;20471;-76
2021/12/26 10:22:26;;;;;;;11.97;9.37;;;;;;;5.57;100.00;152791.06;5030854;28;20558;-76
2021/12/26 10:25:09;;;;;;;12.43;10.03;;;;;;;5.64;100.00;152809.16;5029353;28;20443;-76
2021/12/26 10:27:46;;;;;;;12.40;10.30;;;;;;;5.69;100.00;152823.34;5025900;28;20978;-76
2021/12/26 10:30:24;;;;;;;15.97;11.47;;;;;;;5.68;100.00;152820.75;5030002;28;20439;-76
2021/12/26 10:33:00;;;;;;;12.67;8.90;;;;;;;5.79;100.00;152847.81;5031356;28;20513;-76
2021/12/26 10:35:37;;;;;;;13.03;9.50;;;;;;;5.88;100.00;152871.06;5030404;28;20435;-76
2021/12/26 10:38:16;;;;;;;10.93;9.20;;;;;;;5.90;100.00;152877.56;5013687;28;20460;-76
2021/12/26 10:40:52;;;;;;;11.47;10.00;;;;;;;5.91;100.00;152878.81;5013957;28;20819;-76
2021/12/26 10:43:45;;;;;;;14.47;10.00;;;;;;;5.92;100.00;152882.69;5028060;28;20534;-76
2021/12/26 10:46:20;;;;;;;14.10;10.90;;;;;;;6.05;100.00;152914.94;5029759;28;20811;-75
2021/12/26 10:48:56;;;;;;;11.83;9.57;;;;;;;6.07;100.00;152920.09;5026760;28;20444;-76
2021/12/26 10:51:36;;;;;;;13.43;11.07;;;;;;;6.13;100.00;152935.59;5045539;28;20455;-76
2021/12/26 10:54:13;;;;;;;17.73;10.80;;;;;;;6.08;100.00;152923.97;5061632;28;20435;-75
2021/12/26 10:57:24;;;;;;;12.90;10.17;;;;;;;6.10;100.00;152929.13;5027702;28;20466;-76
2021/12/26 11:00:13;;;;;;;12.07;9.83;;;;;;;6.17;100.00;152945.88;4973019;28;20469;-75
2021/12/26 11:02:51;;;;;;;15.20;12.10;;;;;;;6.19;100.00;152949.78;4953421;28;20460;-76
2021/12/26 11:05:31;;;;;;;13.13;11.03;;;;;;;6.22;100.00;152957.53;5012329;28;20436;-76
2021/12/26 11:08:11;;;;;;;11.80;9.57;;;;;;;6.28;100.00;152974.28;5044209;28;20447;-75
2021/12/26 11:10:49;;;;;;;13.37;9.70;;;;;;;6.29;100.00;152975.56;5028374;28;20496;-76
2021/12/26 11:13:26;;;;;;;11.43;8.90;;;;;;;6.32;100.00;152983.31;5010486;28;20518;-76
2021/12/26 11:16:06;;;;;;;11.23;8.97;;;;;;;6.28;100.00;152972.97;5029015;28;20448;-76
2021/12/26 11:18:42;;;;;;;12.43;9.00;;;;;;;6.31;100.00;152980.72;5029725;28;20963;-76
2021/12/26 11:21:18;;;;;;;10.70;8.87;;;;;;;6.40;100.00;153003.97;5029120;28;20814;-76
2021/12/26 11:23:54;;;;;;;13.10;9.97;;;;;;;6.39;100.00;153002.66;5062358;28;20467;-75
2021/12/26 11:26:30;;;;;;;12.10;9.60;;;;;;;6.43;100.00;153011.72;5031111;28;20443;-75
2021/12/26 11:29:06;;;;;;;11.60;9.20;;;;;;;6.42;100.00;153009.13;5028799;28;20431;-75
2021/12/26 11:31:41;;;;;;;14.00;11.20;;;;;;;6.48;100.00;153024.63;5011256;28;20544;-76
2021/12/26 11:34:18;;;;;;;13.50;10.67;;;;;;;6.47;100.00;153023.31;5027956;28;20443;-76
2021/12/26 11:36:54;;;;;;;14.97;10.10;;;;;;;6.77;100.00;153099.47;5010601;28;20527;-76
2021/12/26 11:39:57;;;;;;;15.30;11.23;;;;;;;6.68;100.00;153076.22;5019964;28;20472;-75
2021/12/26 11:43:50;;;;;;;11.50;9.83;;;;;;;6.71;100.00;153085.28;5016672;28;20991;-76
2021/12/26 11:46:56;;;;;;;11.27;9.00;;;;;;;6.77;100.00;153099.47;5043617;28;20451;-75
2021/12/26 11:50:05;;;;;;;13.07;10.50;;;;;;;6.67;100.00;153073.66;5056052;28;21013;-75
2021/12/26 11:53:29;;;;;;;12.43;9.70;;;;;;;6.64;100.00;153067.22;5030363;28;20784;-75
2021/12/26 11:56:23;;;;;;;11.47;9.07;;;;;;;6.74;100.00;153091.72;5045216;28;20578;-75
2021/12/26 11:59:10;;;;;;;12.77;9.80;;;;;;;6.71;100.00;153085.28;5063555;28;20472;-76
2021/12/26 12:01:48;;;;;;;11.30;9.37;;;;;;;6.76;100.00;153096.88;5044017;28;20832;-75
2021/12/26 12:04:25;;;;;;;11.97;9.83;;;;;;;6.83;100.00;153114.94;5033551;28;20446;-75
2021/12/26 12:07:05;;;;;;;11.20;9.80;;;;;;;7.03;100.00;153166.59;5033287;28;20443;-75
2021/12/26 12:09:46;;;;;;;11.80;10.00;;;;;;;6.96;100.00;153148.53;5016182;28;20435;-75
2021/12/26 12:12:23;;;;;;;13.30;9.77;;;;;;;6.94;100.00;153143.34;5049150;28;20459;-75